createdAt,value
2018-06-10T00:00:18.274Z,21.00
2018-06-10T00:02:47.477Z,21.00
2018-06-10T00:05:16.016Z,21.00
2018-06-10T00:07:44.488Z,21.00
2018-06-10T00:10:13.085Z,21.00
2018-06-10T00:12:41.574Z,20.90
2018-06-10T00:15:10.308Z,20.90
2018-06-10T00:17:38.818Z,20.90
2018-06-10T00:20:07.580Z,20.90
2018-06-10T00:22:36.290Z,20.90
2018-06-10T00:25:04.944Z,20.90
2018-06-10T00:27:33.478Z,20.90
2018-06-10T00:30:01.973Z,20.80
2018-06-10T00:32:30.531Z,20.90
2018-06-10T00:34:59.120Z,20.90
2018-06-10T00:37:27.715Z,20.90
2018-06-10T00:39:56.343Z,20.90
2018-06-10T00:42:24.811Z,20.90
2018-06-10T00:47:21.677Z,20.90
2018-06-10T00:49:50.167Z,20.90
2018-06-10T00:52:18.732Z,20.90
2018-06-10T00:54:47.553Z,20.90
2018-06-10T00:57:16.021Z,20.80
2018-06-10T00:59:44.570Z,20.80
2018-06-10T01:02:13.344Z,20.80
2018-06-10T01:04:41.834Z,20.80
2018-06-10T01:07:10.306Z,20.80
2018-06-10T01:09:38.792Z,20.80
2018-06-10T01:12:07.251Z,20.80
2018-06-10T01:14:35.738Z,20.80
2018-06-10T01:17:04.246Z,20.80
2018-06-10T01:19:32.718Z,20.80
2018-06-10T01:22:01.209Z,20.80
2018-06-10T01:24:29.679Z,20.80
2018-06-10T01:26:58.170Z,20.70
2018-06-10T01:29:26.966Z,20.70
2018-06-10T01:31:55.486Z,20.60
2018-06-10T01:34:23.933Z,20.60
2018-06-10T01:36:52.411Z,20.50
2018-06-10T01:39:20.944Z,20.50
2018-06-10T01:41:49.457Z,20.50
2018-06-10T01:44:17.925Z,20.40
2018-06-10T01:46:46.631Z,20.40
2018-06-10T01:49:15.116Z,20.40
2018-06-10T01:51:43.556Z,20.40
2018-06-10T01:54:12.265Z,20.40
2018-06-10T01:56:40.769Z,20.30
2018-06-10T01:59:09.224Z,20.30
2018-06-10T02:01:37.680Z,20.30
2018-06-10T02:04:06.280Z,20.30
2018-06-10T02:06:34.758Z,20.20
2018-06-10T02:09:03.607Z,20.10
2018-06-10T02:11:32.134Z,20.10
2018-06-10T02:14:00.624Z,20.10
2018-06-10T02:16:29.232Z,20.10
2018-06-10T02:18:57.929Z,20.10
2018-06-10T02:21:26.391Z,20.00
2018-06-10T02:23:55.012Z,19.90
2018-06-10T02:26:23.489Z,19.90
2018-06-10T02:28:51.988Z,20.00
2018-06-10T02:31:20.496Z,20.00
2018-06-10T02:33:48.938Z,20.00
2018-06-10T02:36:17.441Z,20.00
2018-06-10T02:38:46.127Z,20.00
2018-06-10T02:41:14.570Z,19.90
2018-06-10T02:43:43.067Z,19.90
2018-06-10T02:46:11.646Z,19.90
2018-06-10T02:48:40.201Z,19.90
2018-06-10T02:51:08.747Z,19.90
2018-06-10T02:53:37.250Z,19.90
2018-06-10T02:56:06.145Z,19.90
2018-06-10T02:58:34.665Z,19.90
2018-06-10T03:01:03.187Z,19.90
2018-06-10T03:03:31.654Z,19.90
2018-06-10T03:06:00.206Z,19.90
2018-06-10T03:08:28.719Z,19.90
2018-06-10T03:10:57.182Z,19.90
2018-06-10T03:13:25.682Z,19.90
2018-06-10T03:15:54.188Z,19.90
2018-06-10T03:18:22.715Z,20.00
2018-06-10T03:20:51.232Z,20.00
2018-06-10T03:23:19.702Z,20.00
2018-06-10T03:25:48.202Z,20.00
2018-06-10T03:28:16.682Z,20.00
2018-06-10T03:30:45.303Z,19.90
2018-06-10T03:33:13.850Z,19.90
2018-06-10T03:35:42.514Z,20.00
2018-06-10T03:38:10.968Z,20.10
2018-06-10T03:40:39.463Z,20.10
2018-06-10T03:43:08.365Z,20.00
2018-06-10T03:45:36.926Z,20.00
2018-06-10T03:48:05.635Z,20.00
2018-06-10T03:50:34.095Z,20.00
2018-06-10T03:53:02.597Z,20.00
2018-06-10T03:55:31.115Z,20.00
2018-06-10T03:57:59.565Z,20.00
2018-06-10T04:00:28.144Z,20.10
2018-06-10T04:02:56.826Z,20.20
2018-06-10T04:05:25.323Z,20.20
2018-06-10T04:07:53.798Z,20.30
2018-06-10T04:10:22.305Z,20.30
2018-06-10T04:12:50.789Z,20.30
2018-06-10T04:15:19.299Z,20.30
2018-06-10T04:17:47.800Z,20.30
2018-06-10T04:20:16.297Z,20.40
2018-06-10T04:22:44.940Z,20.40
2018-06-10T04:25:13.432Z,20.40
2018-06-10T04:27:41.988Z,20.40
2018-06-10T04:30:10.472Z,20.50
2018-06-10T04:32:38.947Z,20.50
2018-06-10T04:35:07.465Z,20.60
2018-06-10T04:37:36.070Z,20.60
2018-06-10T04:40:04.590Z,20.70
2018-06-10T04:42:33.030Z,20.70
2018-06-10T04:45:01.527Z,20.70
2018-06-10T04:47:30.031Z,20.70
2018-06-10T04:49:58.608Z,20.80
2018-06-10T04:52:27.156Z,20.80
2018-06-10T04:54:55.695Z,20.90
2018-06-10T04:57:24.198Z,20.90
2018-06-10T04:59:52.686Z,21.00
2018-06-10T05:02:21.518Z,21.00
2018-06-10T05:04:49.978Z,21.10
2018-06-10T05:07:18.575Z,21.20
2018-06-10T05:09:47.026Z,21.30
2018-06-10T05:12:15.459Z,21.30
2018-06-10T05:14:44.081Z,21.40
2018-06-10T05:17:12.534Z,21.50
2018-06-10T05:19:41.203Z,21.50
2018-06-10T05:22:09.655Z,21.60
2018-06-10T05:24:38.154Z,21.80
2018-06-10T05:27:06.632Z,21.80
2018-06-10T05:29:35.128Z,21.90
2018-06-10T05:32:03.723Z,22.00
2018-06-10T05:34:32.196Z,22.10
2018-06-10T05:37:00.671Z,22.20
2018-06-10T05:39:29.112Z,22.40
2018-06-10T05:41:57.639Z,22.60
2018-06-10T05:44:26.161Z,22.60
2018-06-10T05:46:54.625Z,22.80
2018-06-10T05:49:23.084Z,22.90
2018-06-10T05:51:51.561Z,23.10
2018-06-10T05:54:20.068Z,23.30
2018-06-10T05:56:48.666Z,23.50
2018-06-10T05:59:17.196Z,23.70
2018-06-10T06:01:45.689Z,23.80
2018-06-10T06:04:14.196Z,24.00
2018-06-10T06:06:42.669Z,24.30
2018-06-10T06:11:39.739Z,24.40
2018-06-10T06:14:08.276Z,24.40
2018-06-10T06:16:36.793Z,24.50
2018-06-10T06:19:05.281Z,24.60
2018-06-10T06:21:33.854Z,24.80
2018-06-10T06:24:02.296Z,24.90
2018-06-10T06:26:30.755Z,24.90
2018-06-10T06:28:59.252Z,25.10
2018-06-10T06:31:27.783Z,25.10
2018-06-10T06:33:56.343Z,25.30
2018-06-10T06:36:24.845Z,25.30
2018-06-10T06:38:53.315Z,25.30
2018-06-10T06:41:21.803Z,25.30
2018-06-10T06:43:50.306Z,25.00
2018-06-10T06:46:18.966Z,25.20
2018-06-10T06:51:15.578Z,25.10
2018-06-10T06:53:44.158Z,25.00
2018-06-10T06:56:12.653Z,25.00
2018-06-10T06:58:41.103Z,24.80
2018-06-10T07:01:09.722Z,24.90
2018-06-10T07:03:38.168Z,24.90
2018-06-10T07:06:06.619Z,25.00
2018-06-10T07:08:35.158Z,25.00
2018-06-10T07:11:03.699Z,24.80
2018-06-10T07:13:32.193Z,24.70
2018-06-10T07:16:00.670Z,24.70
2018-06-10T07:18:29.136Z,24.70
2018-06-10T07:20:57.650Z,24.50
2018-06-10T07:23:26.119Z,24.40
2018-06-10T07:25:54.577Z,24.30
2018-06-10T07:28:23.065Z,24.30
2018-06-10T07:30:51.516Z,24.20
2018-06-10T07:33:20.080Z,24.20
2018-06-10T07:35:48.561Z,24.10
2018-06-10T07:38:17.009Z,24.20
2018-06-10T07:40:45.497Z,24.10
2018-06-10T07:43:13.949Z,24.00
2018-06-10T07:45:42.495Z,24.10
2018-06-10T07:48:10.995Z,24.20
2018-06-10T07:50:39.490Z,24.20
2018-06-10T07:53:07.979Z,24.10
2018-06-10T07:55:36.547Z,24.20
2018-06-10T07:58:05.121Z,24.30
2018-06-10T08:00:33.664Z,24.40
2018-06-10T08:03:02.207Z,24.50
2018-06-10T08:05:30.682Z,24.70
2018-06-10T08:07:59.214Z,24.70
2018-06-10T08:10:27.657Z,24.80
2018-06-10T08:12:56.412Z,24.90
2018-06-10T08:15:24.874Z,25.00
2018-06-10T08:17:53.384Z,25.00
2018-06-10T08:20:21.826Z,25.20
2018-06-10T08:22:50.297Z,25.20
2018-06-10T08:25:18.772Z,25.40
2018-06-10T08:27:47.200Z,25.40
2018-06-10T08:30:15.661Z,25.50
2018-06-10T08:32:44.104Z,25.60
2018-06-10T08:35:12.608Z,25.70
2018-06-10T08:37:41.028Z,25.90
2018-06-10T08:40:09.486Z,25.90
2018-06-10T08:42:38.005Z,25.90
2018-06-10T08:45:06.434Z,25.90
2018-06-10T08:47:34.905Z,25.90
2018-06-10T08:50:03.386Z,26.00
2018-06-10T08:52:32.035Z,26.20
2018-06-10T08:55:00.532Z,26.10
2018-06-10T08:57:28.975Z,26.10
2018-06-10T08:59:57.430Z,26.20
2018-06-10T09:02:25.985Z,26.30
2018-06-10T09:04:54.452Z,26.30
2018-06-10T09:07:22.871Z,26.40
2018-06-10T09:12:19.477Z,26.80
2018-06-10T09:14:47.978Z,27.00
2018-06-10T09:17:16.474Z,27.20
2018-06-10T09:19:44.948Z,27.40
2018-06-10T09:22:13.440Z,27.50
2018-06-10T09:24:41.881Z,27.50
2018-06-10T09:27:10.349Z,27.70
2018-06-10T09:29:38.781Z,27.80
2018-06-10T09:32:07.233Z,27.90
2018-06-10T09:34:35.687Z,27.80
2018-06-10T09:37:04.149Z,27.90
2018-06-10T09:39:32.600Z,28.00
2018-06-10T09:42:01.085Z,28.00
2018-06-10T09:44:29.496Z,28.00
2018-06-10T09:46:57.989Z,28.20
2018-06-10T09:49:26.412Z,28.30
2018-06-10T09:51:54.842Z,28.70
2018-06-10T09:54:23.374Z,28.90
2018-06-10T09:56:51.934Z,29.00
2018-06-10T09:59:20.395Z,29.20
2018-06-10T10:01:48.913Z,29.20
2018-06-10T10:04:17.454Z,29.20
2018-06-10T10:09:14.401Z,29.30
2018-06-10T10:11:42.953Z,29.40
2018-06-10T10:14:11.412Z,29.50
2018-06-10T10:16:39.958Z,29.50
2018-06-10T10:19:08.417Z,29.50
2018-06-10T10:21:36.955Z,29.40
2018-06-10T10:24:05.519Z,29.50
2018-06-10T10:26:33.985Z,29.40
2018-06-10T10:29:02.568Z,29.40
2018-06-10T10:31:31.124Z,29.60
2018-06-10T10:36:28.008Z,29.80
2018-06-10T10:38:56.481Z,29.90
2018-06-10T10:41:24.988Z,29.70
2018-06-10T10:43:53.488Z,29.60
2018-06-10T10:46:21.999Z,29.70
2018-06-10T10:48:50.508Z,29.90
2018-06-10T10:51:19.080Z,29.80
2018-06-10T10:53:47.546Z,29.70
2018-06-10T10:56:16.044Z,29.70
2018-06-10T10:58:44.776Z,29.80
2018-06-10T11:01:13.297Z,29.70
2018-06-10T11:03:41.824Z,29.80
2018-06-10T11:06:10.342Z,29.80
2018-06-10T11:08:38.949Z,29.80
2018-06-10T11:11:07.638Z,29.60
2018-06-10T11:13:36.150Z,29.40
2018-06-10T11:18:32.819Z,29.60
2018-06-10T11:21:01.270Z,29.70
2018-06-10T11:23:29.782Z,29.80
2018-06-10T11:25:58.452Z,29.80
2018-06-10T11:28:27.006Z,30.00
2018-06-10T11:30:55.656Z,30.10
2018-06-10T11:33:24.301Z,30.00
2018-06-10T11:35:52.964Z,30.20
2018-06-10T11:38:21.482Z,30.40
2018-06-10T11:40:50.081Z,30.30
2018-06-10T11:45:46.984Z,30.30
2018-06-10T11:48:15.539Z,30.60
2018-06-10T11:50:44.149Z,30.60
2018-06-10T11:53:12.703Z,30.70
2018-06-10T11:55:41.314Z,30.80
2018-06-10T11:58:09.827Z,30.90
2018-06-10T12:00:38.310Z,30.80
2018-06-10T12:03:06.782Z,30.90
2018-06-10T12:05:35.328Z,30.50
2018-06-10T12:08:03.886Z,30.50
2018-06-10T12:10:32.418Z,30.60
2018-06-10T12:13:00.910Z,30.60
2018-06-10T12:15:29.475Z,30.50
2018-06-10T12:17:58.020Z,30.60
2018-06-10T12:20:26.560Z,30.70
2018-06-10T12:22:55.483Z,30.90
2018-06-10T12:25:24.037Z,31.10
2018-06-10T12:27:52.589Z,31.20
2018-06-10T12:30:21.311Z,31.40
2018-06-10T12:32:49.831Z,31.30
2018-06-10T12:35:18.498Z,31.30
2018-06-10T12:37:47.003Z,31.40
2018-06-10T12:40:15.543Z,31.50
2018-06-10T12:42:44.106Z,31.60
2018-06-10T12:45:12.622Z,31.70
2018-06-10T12:47:41.131Z,31.70
2018-06-10T12:50:09.706Z,31.90
2018-06-10T12:52:38.258Z,31.90
2018-06-10T12:55:06.819Z,31.60
2018-06-10T12:57:35.364Z,31.80
2018-06-10T13:02:32.078Z,31.80
2018-06-10T13:05:00.603Z,32.00
2018-06-10T13:07:29.104Z,32.00
2018-06-10T13:09:57.717Z,32.20
2018-06-10T13:12:26.226Z,31.90
2018-06-10T13:14:55.010Z,32.00
2018-06-10T13:17:23.493Z,32.20
2018-06-10T13:19:52.059Z,32.20
2018-06-10T13:22:20.748Z,32.20
2018-06-10T13:24:49.292Z,32.20
2018-06-10T13:27:17.803Z,32.00
2018-06-10T13:29:46.351Z,32.10
2018-06-10T13:32:14.972Z,32.10
2018-06-10T13:34:43.514Z,32.20
2018-06-10T13:37:12.009Z,32.20
2018-06-10T13:39:40.512Z,32.20
2018-06-10T13:42:09.004Z,32.40
2018-06-10T13:44:37.513Z,32.40
2018-06-10T13:47:06.435Z,32.40
2018-06-10T13:49:35.079Z,32.30
2018-06-10T13:52:03.592Z,32.40
2018-06-10T13:54:32.140Z,32.40
2018-06-10T13:57:01.047Z,32.30
2018-06-10T13:59:29.543Z,32.20
2018-06-10T14:01:58.105Z,32.20
2018-06-10T14:04:26.584Z,32.30
2018-06-10T14:06:55.086Z,32.40
2018-06-10T14:09:23.640Z,32.50
2018-06-10T14:11:52.121Z,32.40
2018-06-10T14:14:20.683Z,32.40
2018-06-10T14:16:49.156Z,32.30
2018-06-10T14:19:17.686Z,32.50
2018-06-10T14:21:46.133Z,32.20
2018-06-10T14:24:14.622Z,32.10
2018-06-10T14:26:43.182Z,32.20
2018-06-10T14:29:11.639Z,32.20
2018-06-10T14:31:40.049Z,32.00
2018-06-10T14:34:08.578Z,32.00
2018-06-10T14:36:37.038Z,32.00
2018-06-10T14:39:08.260Z,32.10
2018-06-10T14:41:36.785Z,32.10
2018-06-10T14:44:05.589Z,32.20
2018-06-10T14:46:34.064Z,32.20
2018-06-10T14:49:02.509Z,32.10
2018-06-10T14:51:30.986Z,32.00
2018-06-10T14:53:59.440Z,32.10
2018-06-10T14:56:27.945Z,31.90
2018-06-10T14:58:56.400Z,31.90
2018-06-10T15:01:24.931Z,31.80
2018-06-10T15:03:53.464Z,31.70
2018-06-10T15:06:21.946Z,31.70
2018-06-10T15:08:50.653Z,31.50
2018-06-10T15:11:19.090Z,31.60
2018-06-10T15:13:47.489Z,31.60
2018-06-10T15:16:15.951Z,31.70
2018-06-10T15:18:44.512Z,31.70
2018-06-10T15:21:13.058Z,31.80
2018-06-10T15:23:41.560Z,31.60
2018-06-10T15:26:10.071Z,31.60
2018-06-10T15:28:38.579Z,31.80
2018-06-10T15:31:07.069Z,31.70
2018-06-10T15:33:35.720Z,31.70
2018-06-10T15:36:04.279Z,31.60
2018-06-10T15:38:32.786Z,31.60
2018-06-10T15:41:01.286Z,31.60
2018-06-10T15:43:29.765Z,31.40
2018-06-10T15:45:58.264Z,31.40
2018-06-10T15:48:26.794Z,31.40
2018-06-10T15:50:55.274Z,31.40
2018-06-10T15:53:23.771Z,31.20
2018-06-10T15:55:52.221Z,31.20
2018-06-10T15:58:20.802Z,31.30
2018-06-10T16:00:49.250Z,31.20
2018-06-10T16:03:17.736Z,31.20
2018-06-10T16:05:46.239Z,31.10
2018-06-10T16:08:14.709Z,31.00
2018-06-10T16:10:43.190Z,30.80
2018-06-10T16:13:11.679Z,30.80
2018-06-10T16:15:40.154Z,30.70
2018-06-10T16:18:08.604Z,30.60
2018-06-10T16:20:37.025Z,30.50
2018-06-10T16:25:33.765Z,30.50
2018-06-10T16:28:02.332Z,30.50
2018-06-10T16:30:30.934Z,30.40
2018-06-10T16:32:59.465Z,30.40
2018-06-10T16:35:27.917Z,30.30
2018-06-10T16:37:56.385Z,30.30
2018-06-10T16:40:24.897Z,30.20
2018-06-10T16:42:53.384Z,30.20
2018-06-10T16:47:50.081Z,30.10
2018-06-10T16:50:18.501Z,30.10
2018-06-10T16:52:46.997Z,30.10
2018-06-10T16:55:15.478Z,30.00
2018-06-10T16:57:43.939Z,30.00
2018-06-10T17:00:12.446Z,30.00
2018-06-10T17:02:40.925Z,29.90
2018-06-10T17:05:09.567Z,29.90
2018-06-10T17:07:38.390Z,29.80
2018-06-10T17:10:06.882Z,29.80
2018-06-10T17:12:35.361Z,29.70
2018-06-10T17:15:03.988Z,29.60
2018-06-10T17:17:32.465Z,29.60
2018-06-10T17:20:00.984Z,29.50
2018-06-10T17:22:30.266Z,29.50
2018-06-10T17:24:58.718Z,29.50
2018-06-10T17:27:27.177Z,29.50
2018-06-10T17:29:56.247Z,29.50
2018-06-10T17:32:24.689Z,29.40
2018-06-10T17:34:53.227Z,29.30
2018-06-10T17:37:21.722Z,29.20
2018-06-10T17:39:50.216Z,29.10
2018-06-10T17:42:18.754Z,29.10
2018-06-10T17:44:47.278Z,29.00
2018-06-10T17:47:15.870Z,29.00
2018-06-10T17:49:44.295Z,28.90
2018-06-10T17:52:12.788Z,28.70
2018-06-10T17:54:41.245Z,28.70
2018-06-10T17:57:09.663Z,28.60
2018-06-10T17:59:38.129Z,28.50
2018-06-10T18:02:06.650Z,28.40
2018-06-10T18:04:35.180Z,28.30
2018-06-10T18:07:03.637Z,28.20
2018-06-10T18:09:32.126Z,27.50
2018-06-10T18:12:00.672Z,26.90
2018-06-10T18:14:29.137Z,26.50
2018-06-10T18:16:57.650Z,26.20
2018-06-10T18:19:26.120Z,26.00
2018-06-10T18:21:54.709Z,25.60
2018-06-10T18:24:23.881Z,25.30
2018-06-10T18:26:52.345Z,25.00
2018-06-10T18:29:20.912Z,24.30
2018-06-10T18:31:49.456Z,24.10
2018-06-10T18:34:17.878Z,23.70
2018-06-10T18:36:46.355Z,23.50
2018-06-10T18:39:14.881Z,23.20
2018-06-10T18:41:43.311Z,23.00
2018-06-10T18:44:11.791Z,23.00
2018-06-10T18:46:40.212Z,22.90
2018-06-10T18:49:08.678Z,22.70
2018-06-10T18:51:37.132Z,22.70
2018-06-10T18:54:05.707Z,22.70
2018-06-10T18:56:34.155Z,22.70
2018-06-10T18:59:02.594Z,22.50
2018-06-10T19:01:31.090Z,22.60
2018-06-10T19:03:59.559Z,22.50
2018-06-10T19:06:28.051Z,22.60
2018-06-10T19:08:56.509Z,22.60
2018-06-10T19:11:25.094Z,22.70
2018-06-10T19:13:53.627Z,22.70
2018-06-10T19:16:22.104Z,22.80
2018-06-10T19:18:50.685Z,22.80
2018-06-10T19:21:19.157Z,22.80
2018-06-10T19:23:47.632Z,22.80
2018-06-10T19:26:16.152Z,22.70
2018-06-10T19:28:44.594Z,22.70
2018-06-10T19:31:13.051Z,22.50
2018-06-10T19:33:41.537Z,22.20
2018-06-10T19:36:10.070Z,22.00
2018-06-10T19:38:38.621Z,22.00
2018-06-10T19:41:07.094Z,22.20
2018-06-10T19:43:35.624Z,22.00
2018-06-10T19:46:04.177Z,21.90
2018-06-10T19:48:34.264Z,21.90
2018-06-10T19:51:02.736Z,21.90
2018-06-10T19:53:31.285Z,21.80
2018-06-10T19:56:00.043Z,21.60
2018-06-10T19:58:28.528Z,21.70
2018-06-10T20:00:57.926Z,21.60
2018-06-10T20:03:26.445Z,21.40
2018-06-10T20:06:02.709Z,21.40
2018-06-10T20:11:24.770Z,21.40
2018-06-10T20:13:53.273Z,21.50
2018-06-10T20:16:21.951Z,21.50
2018-06-10T20:18:50.533Z,21.50
2018-06-10T20:23:47.165Z,21.60
2018-06-10T20:26:15.630Z,21.50
2018-06-10T20:28:44.572Z,21.40
2018-06-10T20:31:13.148Z,21.30
2018-06-10T20:33:41.662Z,21.30
2018-06-10T20:36:10.216Z,21.40
2018-06-10T20:38:38.732Z,21.40
2018-06-10T20:41:07.288Z,21.50
2018-06-10T20:43:35.917Z,21.40
2018-06-10T20:46:04.642Z,21.30
2018-06-10T20:48:33.264Z,21.10
2018-06-10T20:51:01.805Z,21.10
2018-06-10T20:53:30.413Z,21.00
2018-06-10T20:55:59.381Z,21.00
2018-06-10T20:58:28.958Z,20.90
2018-06-10T21:00:57.482Z,20.80
2018-06-10T21:03:26.120Z,20.60
2018-06-10T21:05:54.645Z,20.40
2018-06-10T21:08:23.173Z,20.20
2018-06-10T21:10:51.692Z,20.20
2018-06-10T21:13:20.151Z,20.20
2018-06-10T21:15:48.642Z,20.30
2018-06-10T21:18:17.111Z,20.40
2018-06-10T21:20:45.604Z,20.50
2018-06-10T21:23:14.139Z,20.50
2018-06-10T21:25:42.801Z,20.50
2018-06-10T21:28:11.422Z,20.60
2018-06-10T21:30:39.889Z,20.60
2018-06-10T21:33:08.388Z,20.60
2018-06-10T21:35:36.877Z,20.70
2018-06-10T21:38:05.745Z,20.70
2018-06-10T21:40:34.236Z,20.70
2018-06-10T21:43:02.920Z,20.70
2018-06-10T21:45:31.746Z,20.70
2018-06-10T21:48:00.266Z,20.70
2018-06-10T21:50:28.696Z,20.70
2018-06-10T21:52:57.249Z,20.70
2018-06-10T21:55:25.687Z,20.60
2018-06-10T21:57:54.240Z,20.60
2018-06-10T22:00:25.847Z,20.60
2018-06-10T22:02:54.336Z,20.50
2018-06-10T22:05:23.033Z,20.50
2018-06-10T22:07:51.550Z,20.40
2018-06-10T22:10:20.114Z,20.40
2018-06-10T22:12:48.664Z,20.40
2018-06-10T22:15:17.183Z,20.30
2018-06-10T22:17:45.733Z,20.20
2018-06-10T22:20:14.185Z,20.20
2018-06-10T22:22:42.645Z,20.10
2018-06-10T22:25:11.082Z,20.00
2018-06-10T22:30:07.766Z,20.00
2018-06-10T22:32:36.215Z,20.00
2018-06-10T22:35:04.965Z,20.00
2018-06-10T22:37:33.406Z,20.00
2018-06-10T22:40:01.890Z,20.00
2018-06-10T22:42:30.383Z,20.00
2018-06-10T22:44:59.280Z,20.00
2018-06-10T22:47:27.724Z,20.00
2018-06-10T22:49:56.177Z,20.00
2018-06-10T22:52:24.712Z,20.00
2018-06-10T22:54:53.212Z,20.00
2018-06-10T22:57:21.729Z,20.00
2018-06-10T22:59:50.177Z,20.00
2018-06-10T23:02:18.682Z,20.00
2018-06-10T23:04:47.128Z,20.00
2018-06-10T23:07:15.651Z,20.00
2018-06-10T23:09:44.107Z,20.00
2018-06-10T23:12:12.590Z,20.00
2018-06-10T23:14:41.957Z,20.00
2018-06-10T23:17:10.436Z,20.00
2018-06-10T23:19:38.954Z,20.00
2018-06-10T23:22:07.552Z,20.00
2018-06-10T23:24:36.321Z,19.90
2018-06-10T23:27:04.988Z,19.90
2018-06-10T23:29:33.453Z,19.90
2018-06-10T23:32:01.989Z,19.90
2018-06-10T23:34:30.437Z,19.90
2018-06-10T23:36:58.974Z,19.90
2018-06-10T23:39:27.432Z,19.90
2018-06-10T23:41:55.871Z,19.90
2018-06-10T23:44:24.312Z,19.90
2018-06-10T23:46:52.788Z,19.80
2018-06-10T23:49:21.313Z,19.80
2018-06-10T23:51:49.786Z,19.80
2018-06-10T23:54:18.275Z,19.80
2018-06-10T23:56:46.747Z,19.70
2018-06-10T23:59:15.245Z,19.70
